Missoula, MT (59801)

8:25 PM MDT on August 29, 2016 (GMT -0600)
Franklin to the Fort | | Change Station

Elev 3200 ft 46.86 °N, 114.02 °W | Updated 8 seconds ago

Haze
Haze
83.0 °F
Feels Like 81 °F
N
0.0
Wind Variable Wind from SE
Gusts 0.0 mph

Today
High -- | Low -- °F
--% Chance of Precip.
Yesterday
High -- | Low -- °F
Precip. -- in
Pressure 29.95 in
Visibility 6.0 miles
Clouds Few 9000 ft
Few 11000 ft
Heat Index 81 °F
Dew Point 40 °F
Humidity 22%
Rainfall 0.00 in
Snow Depth Not available.
6:52 AM 8:20 PM
Waning Crescent, 6% visible
METAR KMSO 300153Z AUTO 15007KT 6SM HZ FEW090 FEW110 30/02 A3000 RMK AO2 PK WND 17032/0140 RAB10E19 SLP140 P0000 T03000017 TSNO
Pressure 29.95 in
Visibility 6.0 miles
Clouds Few 9000 ft
Few 11000 ft
Heat Index 81 °F
Dew Point 40 °F
Humidity 22%
Rainfall 0.00 in
Snow Depth Not available.
6:52 AM 8:20 PM
Waning Crescent, 6% visible
METAR KMSO 300153Z AUTO 15007KT 6SM HZ FEW090 FEW110 30/02 A3000 RMK AO2 PK WND 17032/0140 RAB10E19 SLP140 P0000 T03000017 TSNO

10-Day Weather Forecast

Almanac

Astronomy

Aug. 29, 2016 Rise Set
Actual Time
Civil Twilight
Nautical Twilight
Astronomical Twilight
Moon
Length of Visible Light
Length of Day
Tomorrow will be .
, % of the Moon is Illuminated

Today's Extremes

State Highs State Lows

Community

WunderPhotos

Upload Photos

1,935,720 photos uploaded!

WunderBlog® & News

Nearby

Air Quality

  Air Quality AQ Index Pollutant
Not available.

Snow Depth

Station Depth Elevation

Earthquake Activity

City Distance Mag. Time & Date
Minimum magnitude displayed is 2.5.

Coastal Water Temperatures

Place Temperature

Stations

Nearby Weather Stations

Station Location Temp. Windchill Dew Point Humidity Wind Precip. Elev Updated Type
                   

Watches & Warnings

There are currently no watches in effect.